Time;durP1;ratioP1;P1;durP2;ratioP2;P2;SDS_P1;SDS_P2;PMS_P1;PMS_P2;Temp;Humidity;BMP_temperature;BMP_pressure;BME280_temperature;BME280_humidity;BME280_pressure;Samples;Min_cycle;Max_cycle;Signal;HPM_P1;HPM_P2
2023/10/02 00:00:39;;;;;;;;;;;;;;;;;;5113751;28;20428;-59
2023/10/02 00:03:05;;;;;;;;;;;;;;;;;;5114025;28;19958;-59
2023/10/02 00:05:50;;;;;;;;;;;;;;;;;;5113848;28;19911;-58
2023/10/02 00:08:31;;;;;;;;;;;;;;;;;;5113793;28;19960;-59
2023/10/02 00:11:05;;;;;;;;;;;;;;;;;;5112198;28;19919;-59
2023/10/02 00:13:30;;;;;;;;;;;;;;;;;;5112938;27;19920;-57
2023/10/02 00:15:56;;;;;;;;;;;;;;;;;;5112196;28;19912;-59
2023/10/02 00:18:21;;;;;;;;;;;;;;;;;;5112986;28;20006;-58
2023/10/02 00:21:17;;;;;;;;;;;;;;;;;;5113347;28;19911;-59
2023/10/02 00:23:33;;;;;;;;;;;;;;;;;;5113182;28;19915;-58
2023/10/02 00:26:03;;;;;;;;;;;;;;;;;;5111957;28;20027;-59
2023/10/02 00:28:33;;;;;;;;;;;;;;;;;;5113025;28;19915;-58
2023/10/02 00:30:58;;;;;;;;;;;;;;;;;;5113057;28;19920;-59
2023/10/02 00:33:27;;;;;;;;;;;;;;;;;;5113464;28;19916;-59
2023/10/02 00:35:56;;;;;;;;;;;;;;;;;;5111816;28;19908;-58
2023/10/02 00:38:23;;;;;;;;;;;;;;;;;;5113472;28;19920;-59
2023/10/02 00:40:48;;;;;;;;;;;;;;;;;;5113019;28;19955;-58
2023/10/02 00:46:01;;;;;;;;;;;;;;;;;;5112981;28;19923;-59
2023/10/02 00:48:28;;;;;;;;;;;;;;;;;;5111531;28;19915;-59
2023/10/02 00:50:59;;;;;;;;;;;;;;;;;;5111545;28;19926;-59
2023/10/02 00:54:23;;;;;;;;;;;;;;;;;;5111606;28;20297;-58
2023/10/02 00:56:28;;;;;;;;;;;;;;;;;;5091371;28;20076;-58
2023/10/02 00:59:00;;;;;;;;;;;;;;;;;;5112572;28;20014;-58
2023/10/02 01:01:25;;;;;;;;;;;;;;;;;;5111348;28;19968;-58
2023/10/02 01:04:09;;;;;;;;;;;;;;;;;;5112504;28;19998;-58
2023/10/02 01:06:54;;;;;;;;;;;;;;;;;;5112236;28;19966;-57
2023/10/02 01:09:19;;;;;;;;;;;;;;;;;;5111251;28;19916;-58
2023/10/02 01:11:45;;;;;;;;;;;;;;;;;;5111255;28;19968;-60
2023/10/02 01:14:11;;;;;;;;;;;;;;;;;;5112332;28;20403;-59
2023/10/02 01:16:36;;;;;;;;;;;;;;;;;;5112420;28;19923;-59
2023/10/02 01:19:06;;;;;;;;;;;;;;;;;;5112411;28;20438;-59
2023/10/02 01:21:32;;;;;;;;;;;;;;;;;;5112364;28;19916;-57
2023/10/02 01:24:16;;;;;;;;;;;;;;;;;;5112525;28;20003;-56
2023/10/02 01:26:42;;;;;;;;;;;;;;;;;;5112415;28;19916;-59
2023/10/02 01:29:07;;;;;;;;;;;;;;;;;;5110632;28;19916;-57
2023/10/02 01:31:35;;;;;;;;;;;;;;;;;;5110872;28;19923;-59
2023/10/02 01:34:02;;;;;;;;;;;;;;;;;;5110840;28;20295;-59
2023/10/02 01:36:30;;;;;;;;;;;;;;;;;;5112291;28;19915;-60
2023/10/02 01:38:59;;;;;;;;;;;;;;;;;;5112450;28;19916;-58
2023/10/02 01:41:26;;;;;;;;;;;;;;;;;;5112109;28;20005;-59
2023/10/02 01:43:52;;;;;;;;;;;;;;;;;;5110777;28;19912;-59
2023/10/02 01:46:17;;;;;;;;;;;;;;;;;;5112148;28;19941;-59
2023/10/02 01:48:48;;;;;;;;;;;;;;;;;;5110830;28;19915;-59
2023/10/02 01:51:26;;;;;;;;;;;;;;;;;;5093879;28;20408;-59
2023/10/02 01:53:53;;;;;;;;;;;;;;;;;;5076443;28;19913;-60
2023/10/02 01:56:18;;;;;;;;;;;;;;;;;;5069750;28;19916;-59
2023/10/02 01:58:44;;;;;;;;;;;;;;;;;;5071724;28;19912;-59
2023/10/02 02:01:09;;;;;;;;;;;;;;;;;;5070149;28;19935;-59
2023/10/02 02:03:35;;;;;;;;;;;;;;;;;;5070095;28;19966;-59
2023/10/02 02:06:08;;;;;;;;;;;;;;;;;;5071394;28;19919;-60
2023/10/02 02:08:35;;;;;;;;;;;;;;;;;;5070171;28;20141;-57
2023/10/02 02:11:14;;;;;;;;;;;;;;;;;;5071247;28;19920;-60
2023/10/02 02:13:44;;;;;;;;;;;;;;;;;;5071167;28;20381;-59
2023/10/02 02:16:09;;;;;;;;;;;;;;;;;;5070291;28;19912;-58
2023/10/02 02:18:35;;;;;;;;;;;;;;;;;;5069992;28;20018;-60
2023/10/02 02:21:02;;;;;;;;;;;;;;;;;;5070173;28;19912;-58
2023/10/02 02:23:28;;;;;;;;;;;;;;;;;;5069904;28;20373;-59
2023/10/02 02:25:53;;;;;;;;;;;;;;;;;;5071390;28;19920;-58
2023/10/02 02:28:18;;;;;;;;;;;;;;;;;;5083518;28;19919;-60
2023/10/02 02:30:44;;;;;;;;;;;;;;;;;;5110499;28;19964;-58
2023/10/02 02:33:10;;;;;;;;;;;;;;;;;;5110477;28;19915;-59
2023/10/02 02:35:44;;;;;;;;;;;;;;;;;;5111853;28;19918;-59
2023/10/02 02:38:14;;;;;;;;;;;;;;;;;;5111018;28;19922;-60
2023/10/02 02:40:40;;;;;;;;;;;;;;;;;;5112572;28;19967;-59
2023/10/02 02:43:13;;;;;;;;;;;;;;;;;;5114146;28;19916;-59
2023/10/02 02:45:38;;;;;;;;;;;;;;;;;;5113786;28;19973;-59
2023/10/02 02:48:04;;;;;;;;;;;;;;;;;;5114277;28;19959;-59
2023/10/02 02:50:32;;;;;;;;;;;;;;;;;;5095078;28;19916;-60
2023/10/02 02:55:42;;;;;;;;;;;;;;;;;;5094659;28;19912;-58
2023/10/02 02:58:07;;;;;;;;;;;;;;;;;;5095056;28;19922;-59
2023/10/02 03:00:35;;;;;;;;;;;;;;;;;;5094600;28;19916;-60
2023/10/02 03:03:01;;;;;;;;;;;;;;;;;;5094940;28;19912;-58
2023/10/02 03:05:38;;;;;;;;;;;;;;;;;;5094508;28;20022;-59
2023/10/02 03:08:03;;;;;;;;;;;;;;;;;;5093185;28;19969;-59
2023/10/02 03:10:36;;;;;;;;;;;;;;;;;;5094425;28;19920;-58
2023/10/02 03:13:02;;;;;;;;;;;;;;;;;;5093375;28;20505;-58
2023/10/02 03:15:45;;;;;;;;;;;;;;;;;;5094588;28;19957;-60
2023/10/02 03:18:23;;;;;;;;;;;;;;;;;;5094695;28;19923;-59
2023/10/02 03:20:49;;;;;;;;;;;;;;;;;;5093406;28;19916;-58
2023/10/02 03:23:15;;;;;;;;;;;;;;;;;;5093135;28;19916;-59
2023/10/02 03:25:44;;;;;;;;;;;;;;;;;;5092777;28;20310;-60
2023/10/02 03:28:16;;;;;;;;;;;;;;;;;;5099087;28;19916;-59
2023/10/02 03:30:43;;;;;;;;;;;;;;;;;;5114598;28;19919;-59
2023/10/02 03:33:31;;;;;;;;;;;;;;;;;;5114685;28;19926;-58
2023/10/02 03:36:20;;;;;;;;;;;;;;;;;;5092235;28;20000;-60
2023/10/02 03:38:41;;;;;;;;;;;;;;;;;;5093356;28;19919;-56
2023/10/02 03:41:07;;;;;;;;;;;;;;;;;;5092428;28;20281;-59
2023/10/02 03:43:35;;;;;;;;;;;;;;;;;;5093689;28;19994;-59
2023/10/02 03:46:01;;;;;;;;;;;;;;;;;;5093789;28;20327;-60
2023/10/02 03:48:28;;;;;;;;;;;;;;;;;;5093438;28;19916;-58
2023/10/02 03:50:56;;;;;;;;;;;;;;;;;;5093833;28;19927;-59
2023/10/02 03:53:30;;;;;;;;;;;;;;;;;;5093682;28;19923;-56
2023/10/02 03:55:59;;;;;;;;;;;;;;;;;;5092311;28;19971;-58
2023/10/02 03:58:38;;;;;;;;;;;;;;;;;;5093431;28;19916;-58
2023/10/02 04:01:08;;;;;;;;;;;;;;;;;;5093036;28;19957;-59
2023/10/02 04:03:33;;;;;;;;;;;;;;;;;;5074919;28;19912;-59
2023/10/02 04:06:00;;;;;;;;;;;;;;;;;;5092612;28;20026;-58
2023/10/02 04:08:37;;;;;;;;;;;;;;;;;;5093204;28;20018;-58
2023/10/02 04:11:08;;;;;;;;;;;;;;;;;;5093012;28;19920;-60
2023/10/02 04:13:39;;;;;;;;;;;;;;;;;;5087014;28;20393;-58
2023/10/02 04:19:02;;;;;;;;;;;;;;;;;;5084616;28;19916;-58
2023/10/02 04:21:27;;;;;;;;;;;;;;;;;;5074473;28;20405;-59
2023/10/02 04:23:53;;;;;;;;;;;;;;;;;;5085797;28;19916;-59
2023/10/02 04:26:21;;;;;;;;;;;;;;;;;;5087315;28;19966;-58
2023/10/02 04:28:54;;;;;;;;;;;;;;;;;;5090973;28;20368;-59
2023/10/02 04:31:22;;;;;;;;;;;;;;;;;;5076390;28;20384;-59
2023/10/02 04:33:52;;;;;;;;;;;;;;;;;;5092452;28;19965;-58
2023/10/02 04:36:28;;;;;;;;;;;;;;;;;;5075742;28;19912;-55
2023/10/02 04:38:55;;;;;;;;;;;;;;;;;;5072047;28;19962;-59
2023/10/02 04:41:26;;;;;;;;;;;;;;;;;;5071222;28;20292;-58
2023/10/02 04:43:57;;;;;;;;;;;;;;;;;;5074032;28;20551;-58
2023/10/02 04:46:24;;;;;;;;;;;;;;;;;;5072321;28;19931;-59
2023/10/02 04:48:58;;;;;;;;;;;;;;;;;;5072089;28;19963;-58
2023/10/02 04:51:28;;;;;;;;;;;;;;;;;;5076351;28;19981;-58
2023/10/02 04:53:57;;;;;;;;;;;;;;;;;;5070888;28;19959;-59
2023/10/02 04:56:24;;;;;;;;;;;;;;;;;;5090500;28;20387;-59
2023/10/02 04:58:50;;;;;;;;;;;;;;;;;;5092178;28;19912;-60
2023/10/02 05:01:24;;;;;;;;;;;;;;;;;;5092227;28;19968;-58
2023/10/02 05:03:52;;;;;;;;;;;;;;;;;;5090580;28;19957;-60
2023/10/02 05:06:39;;;;;;;;;;;;;;;;;;5092318;28;19935;-59
2023/10/02 05:11:27;;;;;;;;;;;;;;;;;;5092229;28;20022;-60
2023/10/02 05:16:26;;;;;;;;;;;;;;;;;;5091201;28;19908;-61
2023/10/02 05:18:52;;;;;;;;;;;;;;;;;;5089255;28;19912;-61
2023/10/02 05:21:17;;;;;;;;;;;;;;;;;;5090068;28;20011;-60
2023/10/02 05:23:49;;;;;;;;;;;;;;;;;;5090438;28;20289;-60
2023/10/02 05:26:29;;;;;;;;;;;;;;;;;;5090819;28;19945;-58
2023/10/02 05:28:55;;;;;;;;;;;;;;;;;;5097424;28;20384;-59
2023/10/02 05:31:21;;;;;;;;;;;;;;;;;;5074495;28;19935;-59
2023/10/02 05:33:48;;;;;;;;;;;;;;;;;;5081964;28;20101;-59
2023/10/02 05:36:19;;;;;;;;;;;;;;;;;;5087566;28;19942;-58
2023/10/02 05:39:27;;;;;;;;;;;;;;;;;;5091575;28;19918;-61
2023/10/02 05:41:41;;;;;;;;;;;;;;;;;;5091608;28;19916;-59
2023/10/02 05:44:13;;;;;;;;;;;;;;;;;;5090544;28;19934;-60
2023/10/02 05:46:55;;;;;;;;;;;;;;;;;;5090226;28;20274;-60
2023/10/02 05:49:23;;;;;;;;;;;;;;;;;;5091607;28;19965;-59
2023/10/02 05:51:48;;;;;;;;;;;;;;;;;;5090580;28;19978;-60
2023/10/02 05:54:14;;;;;;;;;;;;;;;;;;5091606;28;19959;-57
2023/10/02 05:56:41;;;;;;;;;;;;;;;;;;5091487;28;19916;-59
2023/10/02 05:59:06;;;;;;;;;;;;;;;;;;5088380;28;19912;-60
2023/10/02 06:01:34;;;;;;;;;;;;;;;;;;5086799;28;19962;-60
2023/10/02 06:04:04;;;;;;;;;;;;;;;;;;5091408;28;20262;-59
2023/10/02 06:06:35;;;;;;;;;;;;;;;;;;5091013;28;19952;-58
2023/10/02 06:09:03;;;;;;;;;;;;;;;;;;5091232;28;19951;-61
2023/10/02 06:11:35;;;;;;;;;;;;;;;;;;5090817;28;19924;-58
2023/10/02 06:14:10;;;;;;;;;;;;;;;;;;5079224;28;20385;-59
2023/10/02 06:16:35;;;;;;;;;;;;;;;;;;5093463;28;19970;-59
2023/10/02 06:19:00;;;;;;;;;;;;;;;;;;5094993;28;20353;-59
2023/10/02 06:21:26;;;;;;;;;;;;;;;;;;5094857;28;20289;-59
2023/10/02 06:23:52;;;;;;;;;;;;;;;;;;5095029;28;19912;-58
2023/10/02 06:26:17;;;;;;;;;;;;;;;;;;5092526;28;20408;-59
2023/10/02 06:28:47;;;;;;;;;;;;;;;;;;5093208;28;19912;-58
2023/10/02 06:31:15;;;;;;;;;;;;;;;;;;5102167;28;19926;-59
2023/10/02 06:33:40;;;;;;;;;;;;;;;;;;5089056;28;19965;-60
2023/10/02 06:36:05;;;;;;;;;;;;;;;;;;5082070;28;19912;-59
2023/10/02 06:38:31;;;;;;;;;;;;;;;;;;5077103;28;19913;-59
2023/10/02 06:40:59;;;;;;;;;;;;;;;;;;5074235;28;19919;-58
2023/10/02 06:43:32;;;;;;;;;;;;;;;;;;5073151;28;19950;-59
2023/10/02 06:46:06;;;;;;;;;;;;;;;;;;5073798;28;20401;-58
2023/10/02 06:48:34;;;;;;;;;;;;;;;;;;5073015;28;19916;-59
2023/10/02 06:50:59;;;;;;;;;;;;;;;;;;5083925;28;19926;-59
2023/10/02 06:53:25;;;;;;;;;;;;;;;;;;5094766;28;20018;-58
2023/10/02 06:55:58;;;;;;;;;;;;;;;;;;5093988;28;19934;-59
2023/10/02 06:58:25;;;;;;;;;;;;;;;;;;5094855;28;19949;-58
2023/10/02 07:01:01;;;;;;;;;;;;;;;;;;5083139;28;19912;-59
2023/10/02 07:03:26;;;;;;;;;;;;;;;;;;5073816;28;19923;-59
2023/10/02 07:05:52;;;;;;;;;;;;;;;;;;5075139;28;19912;-58
2023/10/02 07:08:18;;;;;;;;;;;;;;;;;;5074202;28;20511;-58
2023/10/02 07:10:43;;;;;;;;;;;;;;;;;;5077062;28;20432;-59
2023/10/02 07:13:21;;;;;;;;;;;;;;;;;;5086888;28;19958;-59
2023/10/02 07:15:47;;;;;;;;;;;;;;;;;;5076898;28;19913;-59
2023/10/02 07:18:12;;;;;;;;;;;;;;;;;;5083751;28;19960;-60
2023/10/02 07:20:42;;;;;;;;;;;;;;;;;;5091819;28;19945;-58
2023/10/02 07:23:09;;;;;;;;;;;;;;;;;;5091152;28;19916;-59
2023/10/02 07:25:34;;;;;;;;;;;;;;;;;;5092145;28;20362;-59
2023/10/02 07:28:00;;;;;;;;;;;;;;;;;;5096976;28;19968;-59
2023/10/02 07:30:26;;;;;;;;;;;;;;;;;;5099334;28;19957;-60
2023/10/02 07:32:53;;;;;;;;;;;;;;;;;;5076462;28;19955;-60
2023/10/02 07:35:25;;;;;;;;;;;;;;;;;;5079994;28;19931;-59
2023/10/02 07:38:00;;;;;;;;;;;;;;;;;;5090899;28;19922;-59
2023/10/02 07:40:26;;;;;;;;;;;;;;;;;;5093455;28;19911;-58
2023/10/02 07:42:52;;;;;;;;;;;;;;;;;;5092161;28;19933;-58
2023/10/02 07:45:27;;;;;;;;;;;;;;;;;;5092700;28;19920;-59
2023/10/02 07:48:09;;;;;;;;;;;;;;;;;;5093645;28;19923;-58
2023/10/02 07:50:35;;;;;;;;;;;;;;;;;;5092735;28;20401;-59
2023/10/02 07:53:01;;;;;;;;;;;;;;;;;;5093186;28;20014;-59
2023/10/02 07:55:27;;;;;;;;;;;;;;;;;;5084004;28;19912;-60
2023/10/02 07:57:58;;;;;;;;;;;;;;;;;;5080529;28;19938;-59
2023/10/02 08:00:38;;;;;;;;;;;;;;;;;;5091362;28;20460;-59
2023/10/02 08:03:04;;;;;;;;;;;;;;;;;;5093462;28;19938;-58
2023/10/02 08:05:29;;;;;;;;;;;;;;;;;;5091211;28;20405;-59
2023/10/02 08:08:10;;;;;;;;;;;;;;;;;;5093070;28;19923;-60
2023/10/02 08:10:52;;;;;;;;;;;;;;;;;;5092502;28;19912;-61
2023/10/02 08:13:32;;;;;;;;;;;;;;;;;;5092630;28;20381;-58
2023/10/02 08:15:58;;;;;;;;;;;;;;;;;;5091543;28;20350;-59
2023/10/02 08:18:24;;;;;;;;;;;;;;;;;;5091600;28;19916;-59
2023/10/02 08:20:50;;;;;;;;;;;;;;;;;;5091168;28;19911;-59
2023/10/02 08:23:24;;;;;;;;;;;;;;;;;;5093127;28;20378;-58
2023/10/02 08:26:09;;;;;;;;;;;;;;;;;;5092403;28;20444;-60
2023/10/02 08:28:35;;;;;;;;;;;;;;;;;;5100864;28;19915;-60
2023/10/02 08:31:00;;;;;;;;;;;;;;;;;;5088981;28;19916;-59
2023/10/02 08:33:26;;;;;;;;;;;;;;;;;;5072691;28;20011;-59
2023/10/02 08:35:51;;;;;;;;;;;;;;;;;;5074468;28;20006;-60
2023/10/02 08:38:24;;;;;;;;;;;;;;;;;;5071830;28;19963;-59
2023/10/02 08:40:57;;;;;;;;;;;;;;;;;;5071755;28;20297;-59
2023/10/02 08:43:22;;;;;;;;;;;;;;;;;;5072431;28;19916;-60
2023/10/02 08:45:48;;;;;;;;;;;;;;;;;;5070511;28;19946;-60
2023/10/02 08:48:17;;;;;;;;;;;;;;;;;;5072246;28;19917;-60
2023/10/02 08:50:44;;;;;;;;;;;;;;;;;;5074109;28;19916;-59
2023/10/02 08:53:09;;;;;;;;;;;;;;;;;;5072070;28;19916;-60
2023/10/02 08:55:51;;;;;;;;;;;;;;;;;;5070068;28;19931;-59
2023/10/02 08:58:18;;;;;;;;;;;;;;;;;;5071972;28;19923;-59
2023/10/02 09:00:44;;;;;;;;;;;;;;;;;;5071278;28;19918;-59
2023/10/02 09:03:14;;;;;;;;;;;;;;;;;;5071947;28;20015;-58
2023/10/02 09:05:39;;;;;;;;;;;;;;;;;;5071100;28;20338;-60
2023/10/02 09:08:07;;;;;;;;;;;;;;;;;;5070342;28;19912;-58
2023/10/02 09:10:41;;;;;;;;;;;;;;;;;;5069926;28;20339;-57
2023/10/02 09:13:06;;;;;;;;;;;;;;;;;;5070201;28;19923;-58
2023/10/02 09:15:35;;;;;;;;;;;;;;;;;;5070024;28;19956;-60
2023/10/02 09:18:17;;;;;;;;;;;;;;;;;;5071894;28;20382;-58
2023/10/02 09:20:46;;;;;;;;;;;;;;;;;;5084375;28;19920;-57
2023/10/02 09:23:12;;;;;;;;;;;;;;;;;;5091510;28;19961;-59
2023/10/02 09:25:40;;;;;;;;;;;;;;;;;;5076179;28;19912;-60
2023/10/02 09:28:13;;;;;;;;;;;;;;;;;;5080213;28;19915;-59
2023/10/02 09:30:38;;;;;;;;;;;;;;;;;;5095163;28;20022;-59
2023/10/02 09:33:08;;;;;;;;;;;;;;;;;;5072002;28;20019;-59
2023/10/02 09:35:39;;;;;;;;;;;;;;;;;;5071155;28;19922;-58
2023/10/02 09:38:04;;;;;;;;;;;;;;;;;;5071289;28;19916;-60
2023/10/02 09:40:51;;;;;;;;;;;;;;;;;;5071431;28;19999;-60
2023/10/02 09:43:16;;;;;;;;;;;;;;;;;;5053496;28;20466;-59
2023/10/02 09:45:46;;;;;;;;;;;;;;;;;;5069583;28;19965;-59
2023/10/02 09:48:46;;;;;;;;;;;;;;;;;;5071861;28;20011;-59
2023/10/02 09:51:06;;;;;;;;;;;;;;;;;;5079401;28;20448;-59
2023/10/02 09:53:32;;;;;;;;;;;;;;;;;;5092661;28;20023;-57
2023/10/02 09:55:57;;;;;;;;;;;;;;;;;;5076304;28;20023;-59
2023/10/02 09:58:29;;;;;;;;;;;;;;;;;;5075664;28;19923;-58
2023/10/02 10:00:54;;;;;;;;;;;;;;;;;;5074922;28;19923;-59
2023/10/02 10:03:22;;;;;;;;;;;;;;;;;;5076409;28;19917;-59
2023/10/02 10:05:47;;;;;;;;;;;;;;;;;;5086867;28;20057;-59
2023/10/02 10:10:47;;;;;;;;;;;;;;;;;;5074997;28;20013;-58
2023/10/02 10:13:14;;;;;;;;;;;;;;;;;;5073833;28;20290;-59
2023/10/02 10:15:40;;;;;;;;;;;;;;;;;;5081667;28;19961;-62
2023/10/02 10:18:12;;;;;;;;;;;;;;;;;;5095530;28;20014;-59
2023/10/02 10:20:37;;;;;;;;;;;;;;;;;;5094748;28;19919;-59
2023/10/02 10:23:04;;;;;;;;;;;;;;;;;;5079707;28;19954;-59
2023/10/02 10:25:38;;;;;;;;;;;;;;;;;;5074574;28;19993;-58
2023/10/02 10:28:08;;;;;;;;;;;;;;;;;;5078763;28;19916;-59
2023/10/02 10:30:33;;;;;;;;;;;;;;;;;;5086963;28;19912;-60
2023/10/02 10:33:01;;;;;;;;;;;;;;;;;;5075113;28;19953;-61
2023/10/02 10:35:27;;;;;;;;;;;;;;;;;;5075992;28;19912;-61
2023/10/02 10:37:55;;;;;;;;;;;;;;;;;;5091539;28;20421;-62
2023/10/02 10:43:05;;;;;;;;;;;;;;;;;;5089254;28;20315;-60
2023/10/02 10:45:33;;;;;;;;;;;;;;;;;;5092759;28;19920;-60
2023/10/02 10:47:58;;;;;;;;;;;;;;;;;;5094856;28;19915;-63
2023/10/02 10:50:29;;;;;;;;;;;;;;;;;;5089332;28;19965;-61
2023/10/02 10:52:54;;;;;;;;;;;;;;;;;;5076286;28;19934;-59
2023/10/02 10:55:21;;;;;;;;;;;;;;;;;;5093960;28;19990;-60
2023/10/02 10:57:51;;;;;;;;;;;;;;;;;;5090462;28;19923;-60
2023/10/02 11:00:27;;;;;;;;;;;;;;;;;;5088068;28;20012;-60
2023/10/02 11:02:52;;;;;;;;;;;;;;;;;;5073743;28;19923;-59
2023/10/02 11:05:17;;;;;;;;;;;;;;;;;;5084476;28;20296;-61
2023/10/02 11:07:47;;;;;;;;;;;;;;;;;;5093128;28;19916;-58
2023/10/02 11:10:22;;;;;;;;;;;;;;;;;;5077485;28;19912;-60
2023/10/02 11:12:56;;;;;;;;;;;;;;;;;;5087085;28;19923;-60
2023/10/02 11:18:18;;;;;;;;;;;;;;;;;;5094404;28;19923;-60
2023/10/02 11:20:43;;;;;;;;;;;;;;;;;;5077265;28;19919;-58
2023/10/02 11:23:09;;;;;;;;;;;;;;;;;;5078342;28;19916;-60
2023/10/02 11:25:39;;;;;;;;;;;;;;;;;;5079963;28;19912;-60
2023/10/02 11:28:04;;;;;;;;;;;;;;;;;;5081957;28;20296;-60
2023/10/02 11:30:33;;;;;;;;;;;;;;;;;;5098460;28;19927;-60
2023/10/02 11:33:05;;;;;;;;;;;;;;;;;;5079041;28;19928;-60
2023/10/02 11:35:37;;;;;;;;;;;;;;;;;;5083725;28;20438;-60
2023/10/02 11:38:03;;;;;;;;;;;;;;;;;;5085935;28;19928;-59
2023/10/02 11:40:28;;;;;;;;;;;;;;;;;;5073142;28;19913;-60
2023/10/02 11:42:53;;;;;;;;;;;;;;;;;;5073162;28;19920;-59
2023/10/02 11:45:19;;;;;;;;;;;;;;;;;;5084310;28;20020;-59
2023/10/02 11:47:44;;;;;;;;;;;;;;;;;;5073329;28;19969;-59
2023/10/02 11:50:12;;;;;;;;;;;;;;;;;;5079312;28;19957;-59
2023/10/02 11:52:37;;;;;;;;;;;;;;;;;;5081028;28;19931;-59
2023/10/02 11:55:03;;;;;;;;;;;;;;;;;;5071489;28;20336;-58
2023/10/02 11:57:29;;;;;;;;;;;;;;;;;;5073719;28;20374;-59
2023/10/02 11:59:55;;;;;;;;;;;;;;;;;;5076180;28;19916;-59
2023/10/02 12:02:20;;;;;;;;;;;;;;;;;;5078298;28;19923;-59
2023/10/02 12:04:45;;;;;;;;;;;;;;;;;;5093163;28;20023;-58
2023/10/02 12:07:12;;;;;;;;;;;;;;;;;;5093206;28;19916;-59
2023/10/02 12:09:38;;;;;;;;;;;;;;;;;;5089162;28;19909;-60
2023/10/02 12:12:03;;;;;;;;;;;;;;;;;;5072530;28;20285;-59
2023/10/02 12:14:29;;;;;;;;;;;;;;;;;;5071377;28;19920;-59
2023/10/02 12:16:57;;;;;;;;;;;;;;;;;;5071034;28;20024;-59
2023/10/02 12:19:24;;;;;;;;;;;;;;;;;;5072289;28;20370;-59
2023/10/02 12:21:49;;;;;;;;;;;;;;;;;;5072224;28;19920;-62
2023/10/02 12:24:14;;;;;;;;;;;;;;;;;;5072387;28;19989;-59
2023/10/02 12:26:40;;;;;;;;;;;;;;;;;;5074838;28;19993;-59
2023/10/02 12:29:06;;;;;;;;;;;;;;;;;;5084935;28;19912;-59
2023/10/02 12:31:36;;;;;;;;;;;;;;;;;;5079039;28;19930;-59
2023/10/02 12:34:01;;;;;;;;;;;;;;;;;;5090976;28;20438;-59
2023/10/02 12:36:27;;;;;;;;;;;;;;;;;;5091996;28;19916;-57
2023/10/02 12:38:52;;;;;;;;;;;;;;;;;;5092473;28;20304;-58
2023/10/02 12:41:18;;;;;;;;;;;;;;;;;;5077369;28;19912;-62
2023/10/02 12:43:43;;;;;;;;;;;;;;;;;;5078103;28;19913;-62
2023/10/02 12:46:08;;;;;;;;;;;;;;;;;;5081352;28;20363;-60
2023/10/02 12:48:35;;;;;;;;;;;;;;;;;;5072884;28;20271;-61
2023/10/02 12:51:00;;;;;;;;;;;;;;;;;;5078303;28;20010;-62
2023/10/02 12:53:27;;;;;;;;;;;;;;;;;;5040891;28;19966;-61
2023/10/02 12:55:52;;;;;;;;;;;;;;;;;;5072246;28;19944;-60
2023/10/02 12:58:19;;;;;;;;;;;;;;;;;;5071626;28;19916;-62
2023/10/02 13:00:44;;;;;;;;;;;;;;;;;;5071943;28;19916;-62
2023/10/02 13:03:10;;;;;;;;;;;;;;;;;;5072260;28;19912;-62
2023/10/02 13:05:35;;;;;;;;;;;;;;;;;;5071647;28;19916;-63
2023/10/02 13:08:09;;;;;;;;;;;;;;;;;;5070471;28;20007;-61
2023/10/02 13:10:44;;;;;;;;;;;;;;;;;;5074387;28;20012;-62
2023/10/02 13:13:11;;;;;;;;;;;;;;;;;;5068163;28;19916;-61
2023/10/02 13:18:31;;;;;;;;;;;;;;;;;;5092206;28;20266;-62
2023/10/02 13:21:09;;;;;;;;;;;;;;;;;;5091826;28;20289;-59
2023/10/02 13:23:34;;;;;;;;;;;;;;;;;;5091189;28;20193;-60
2023/10/02 13:26:02;;;;;;;;;;;;;;;;;;5078371;28;19912;-57
2023/10/02 13:28:28;;;;;;;;;;;;;;;;;;5049816;28;20373;-61
2023/10/02 13:30:54;;;;;;;;;;;;;;;;;;5072941;28;20019;-62
2023/10/02 13:33:20;;;;;;;;;;;;;;;;;;5074102;28;20003;-60
2023/10/02 13:35:54;;;;;;;;;;;;;;;;;;5069984;28;19912;-59
2023/10/02 13:38:19;;;;;;;;;;;;;;;;;;5079107;28;19916;-60
2023/10/02 13:40:45;;;;;;;;;;;;;;;;;;5091498;28;19916;-60
2023/10/02 13:43:11;;;;;;;;;;;;;;;;;;5082600;28;19912;-59
2023/10/02 13:45:36;;;;;;;;;;;;;;;;;;5081363;28;19923;-58
2023/10/02 13:48:04;;;;;;;;;;;;;;;;;;5082947;28;19926;-60
2023/10/02 13:50:31;;;;;;;;;;;;;;;;;;5085410;28;20294;-60
2023/10/02 13:52:57;;;;;;;;;;;;;;;;;;5070556;28;20566;-58
2023/10/02 13:55:22;;;;;;;;;;;;;;;;;;5074738;28;19962;-60
2023/10/02 13:57:48;;;;;;;;;;;;;;;;;;5071575;28;20339;-59
2023/10/02 14:00:17;;;;;;;;;;;;;;;;;;5071257;28;19916;-57
2023/10/02 14:02:42;;;;;;;;;;;;;;;;;;5083509;28;19919;-60
2023/10/02 14:05:07;;;;;;;;;;;;;;;;;;5089666;28;19912;-59
2023/10/02 14:07:36;;;;;;;;;;;;;;;;;;5074899;28;20298;-59
2023/10/02 14:10:03;;;;;;;;;;;;;;;;;;5070757;28;19932;-58
2023/10/02 14:12:30;;;;;;;;;;;;;;;;;;5071565;28;19924;-59
2023/10/02 14:14:55;;;;;;;;;;;;;;;;;;5079205;28;19923;-60
2023/10/02 14:17:21;;;;;;;;;;;;;;;;;;5046129;28;19915;-59
2023/10/02 14:19:47;;;;;;;;;;;;;;;;;;5079293;28;19923;-57
2023/10/02 14:22:12;;;;;;;;;;;;;;;;;;5075478;28;19913;-59
2023/10/02 14:24:38;;;;;;;;;;;;;;;;;;5079878;28;19959;-60
2023/10/02 14:27:03;;;;;;;;;;;;;;;;;;5075889;28;19912;-59
2023/10/02 14:29:28;;;;;;;;;;;;;;;;;;5083036;28;19929;-61
2023/10/02 14:31:54;;;;;;;;;;;;;;;;;;5075540;28;20293;-61
2023/10/02 14:34:21;;;;;;;;;;;;;;;;;;5076635;28;19916;-59
2023/10/02 14:36:46;;;;;;;;;;;;;;;;;;5061345;28;19919;-59
2023/10/02 14:39:15;;;;;;;;;;;;;;;;;;5083683;28;19920;-57
2023/10/02 14:41:40;;;;;;;;;;;;;;;;;;5080971;28;19909;-59
2023/10/02 14:44:06;;;;;;;;;;;;;;;;;;5081484;28;19916;-60
2023/10/02 14:46:31;;;;;;;;;;;;;;;;;;5084084;28;19924;-61
2023/10/02 14:48:57;;;;;;;;;;;;;;;;;;5082132;28;20042;-60
2023/10/02 14:51:23;;;;;;;;;;;;;;;;;;5082613;28;20014;-61
2023/10/02 14:53:48;;;;;;;;;;;;;;;;;;5083547;28;19975;-59
2023/10/02 14:56:13;;;;;;;;;;;;;;;;;;5081462;28;20404;-58
2023/10/02 14:58:46;;;;;;;;;;;;;;;;;;5082087;28;20405;-59
2023/10/02 15:01:12;;;;;;;;;;;;;;;;;;5091555;28;19912;-58
2023/10/02 15:03:40;;;;;;;;;;;;;;;;;;5094023;28;19970;-60
2023/10/02 15:06:05;;;;;;;;;;;;;;;;;;5093751;28;19912;-63
2023/10/02 15:08:33;;;;;;;;;;;;;;;;;;5093459;28;19942;-60
2023/10/02 15:10:58;;;;;;;;;;;;;;;;;;5093764;28;20381;-59
2023/10/02 15:13:25;;;;;;;;;;;;;;;;;;5093387;28;19912;-62
2023/10/02 15:15:51;;;;;;;;;;;;;;;;;;5088398;28;20226;-61
2023/10/02 15:18:16;;;;;;;;;;;;;;;;;;5092674;28;19973;-60
2023/10/02 15:20:43;;;;;;;;;;;;;;;;;;5092408;28;19958;-60
2023/10/02 15:23:10;;;;;;;;;;;;;;;;;;5092208;28;19912;-61
2023/10/02 15:25:36;;;;;;;;;;;;;;;;;;5093451;28;20309;-61
2023/10/02 15:28:01;;;;;;;;;;;;;;;;;;5095790;28;19912;-60
2023/10/02 15:30:27;;;;;;;;;;;;;;;;;;5113207;28;19922;-63
2023/10/02 15:32:54;;;;;;;;;;;;;;;;;;5113614;28;19919;-62
2023/10/02 15:35:20;;;;;;;;;;;;;;;;;;5071652;28;19923;-61
2023/10/02 15:37:46;;;;;;;;;;;;;;;;;;5092934;28;19912;-59
2023/10/02 15:40:12;;;;;;;;;;;;;;;;;;5093151;28;19976;-61
2023/10/02 15:42:37;;;;;;;;;;;;;;;;;;5091390;28;20258;-59
2023/10/02 15:45:04;;;;;;;;;;;;;;;;;;5082380;28;19917;-60
2023/10/02 15:47:29;;;;;;;;;;;;;;;;;;5080780;28;19916;-57
2023/10/02 15:49:55;;;;;;;;;;;;;;;;;;5082705;28;19922;-59
2023/10/02 15:52:20;;;;;;;;;;;;;;;;;;5080435;28;19920;-60
2023/10/02 15:54:46;;;;;;;;;;;;;;;;;;5081676;28;19962;-59
2023/10/02 15:57:11;;;;;;;;;;;;;;;;;;5081532;28;20323;-59
2023/10/02 15:59:37;;;;;;;;;;;;;;;;;;5081361;28;20475;-57
2023/10/02 16:02:02;;;;;;;;;;;;;;;;;;5081516;28;19973;-56
2023/10/02 16:04:28;;;;;;;;;;;;;;;;;;5080294;28;20011;-58
2023/10/02 16:06:53;;;;;;;;;;;;;;;;;;5080923;28;19912;-60
2023/10/02 16:09:21;;;;;;;;;;;;;;;;;;5084459;28;20336;-59
2023/10/02 16:11:46;;;;;;;;;;;;;;;;;;5080908;28;19955;-60
2023/10/02 16:14:12;;;;;;;;;;;;;;;;;;5077867;28;20384;-60
2023/10/02 16:16:37;;;;;;;;;;;;;;;;;;5070335;28;20074;-59
2023/10/02 16:19:02;;;;;;;;;;;;;;;;;;5071853;28;19917;-61
2023/10/02 16:21:29;;;;;;;;;;;;;;;;;;5072060;28;19920;-60
2023/10/02 16:23:54;;;;;;;;;;;;;;;;;;5071976;28;20298;-61
2023/10/02 16:26:20;;;;;;;;;;;;;;;;;;5086296;28;20437;-59
2023/10/02 16:28:46;;;;;;;;;;;;;;;;;;5092131;28;20395;-60
2023/10/02 16:31:12;;;;;;;;;;;;;;;;;;5090063;28;19927;-59
2023/10/02 16:33:38;;;;;;;;;;;;;;;;;;5091087;28;19916;-57
2023/10/02 16:36:03;;;;;;;;;;;;;;;;;;5092308;28;19943;-57
2023/10/02 16:38:28;;;;;;;;;;;;;;;;;;5090625;28;19931;-59
2023/10/02 16:40:54;;;;;;;;;;;;;;;;;;5090633;28;20006;-60
2023/10/02 16:43:19;;;;;;;;;;;;;;;;;;5090633;28;19962;-60
2023/10/02 16:45:47;;;;;;;;;;;;;;;;;;5089860;28;19927;-60
2023/10/02 16:48:12;;;;;;;;;;;;;;;;;;5092297;28;19944;-61
2023/10/02 16:50:37;;;;;;;;;;;;;;;;;;5090446;28;20010;-59
2023/10/02 16:53:03;;;;;;;;;;;;;;;;;;5092003;28;19924;-60
2023/10/02 16:55:29;;;;;;;;;;;;;;;;;;5090558;28;19916;-60
2023/10/02 16:57:56;;;;;;;;;;;;;;;;;;5091968;28;20625;-61
2023/10/02 17:00:22;;;;;;;;;;;;;;;;;;5089057;28;19939;-60
2023/10/02 17:02:47;;;;;;;;;;;;;;;;;;5090483;28;19911;-60
2023/10/02 17:05:12;;;;;;;;;;;;;;;;;;5089929;28;19915;-60
2023/10/02 17:07:40;;;;;;;;;;;;;;;;;;5090114;28;20280;-58
2023/10/02 17:10:06;;;;;;;;;;;;;;;;;;5089974;28;20014;-61
2023/10/02 17:12:31;;;;;;;;;;;;;;;;;;5091666;28;19966;-62
2023/10/02 17:14:56;;;;;;;;;;;;;;;;;;5090740;28;20002;-61
2023/10/02 17:17:22;;;;;;;;;;;;;;;;;;5091640;28;19950;-60